Lake Panamoka, New York
Current Conditions -  °F | °C
As of 9:56 PM on Tuesday 25 Nov 2014 (Local Time) from KHWV Reporting Station
Clear Clear  
Wind Chill: 46°   Ceiling: Unl
Heat Index: 48°   Visibility: 10mi
Dew Point: 34°   Wind: 5mph
Humidity: 58%   Direction: 270°W
Pressure: 30.14"   Gusts: NA
Location:  40.8942°N, 72.8763°W
Report Text: KHWV 260256Z AUTO 27004KT 10SM CLR 09/01 A3014 RMK AO2 SLP205 T00890011 51028 TSNO
Loading
Personal Weather Stations






























Interactive Weather Map New forecast layout! Learn more

10-Day Weather Forecast

Advertisements
Track Severe Weather on mobile